createdAt,value
2023-01-21T00:03:37.470Z,504
2023-01-21T00:08:39.831Z,509.13761
2023-01-21T00:13:41.935Z,494
2023-01-21T00:18:43.851Z,498.95495
2023-01-21T00:23:45.589Z,498.95495
2023-01-21T00:28:47.439Z,475.03448
2023-01-21T00:33:49.305Z,484.35088
2023-01-21T00:38:51.334Z,479.65217
2023-01-21T00:43:53.005Z,484.35088
2023-01-21T00:48:54.816Z,484.35088
2023-01-21T00:53:57.296Z,484.35088
2023-01-21T00:58:58.956Z,479.65217
2023-01-21T01:04:00.833Z,475.03448
2023-01-21T01:09:02.610Z,470.49573
2023-01-21T01:14:04.251Z,466.0339
2023-01-21T01:19:05.839Z,461.64706
2023-01-21T01:24:07.503Z,457.33333
2023-01-21T01:29:09.092Z,444.81301
2023-01-21T01:34:10.630Z,436.8
2023-01-21T01:39:12.106Z,417.84615
2023-01-21T01:44:13.751Z,407.15789
2023-01-21T01:49:15.367Z,396.94118
2023-01-21T01:54:16.974Z,390.37681
2023-01-21T01:59:18.424Z,377.80282
2023-01-21T02:04:20.262Z,368.82759
2023-01-21T02:09:22.130Z,357.42282
2023-01-21T02:14:24.164Z,351.94702
2023-01-21T02:19:25.709Z,346.61438
2023-01-21T02:24:27.400Z,344
2023-01-21T02:29:29.091Z,349.26316
2023-01-21T02:34:30.899Z,351.94702
2023-01-21T02:39:32.868Z,341.41935
2023-01-21T02:44:34.639Z,344
2023-01-21T02:49:36.476Z,341.41935
2023-01-21T02:54:38.264Z,349.26316
2023-01-21T02:59:40.024Z,344
2023-01-21T03:04:41.617Z,341.41935
2023-01-21T03:09:43.397Z,341.41935
2023-01-21T03:14:46.010Z,338.87179
2023-01-21T03:19:47.595Z,333.87342
2023-01-21T03:24:49.221Z,336.35669
2023-01-21T03:29:51.005Z,333.87342
2023-01-21T03:34:52.688Z,333.87342
2023-01-21T03:39:54.209Z,331.42138
2023-01-21T03:44:55.901Z,336.35669
2023-01-21T03:49:57.970Z,333.87342
2023-01-21T03:54:59.934Z,341.41935
2023-01-21T04:00:01.484Z,363.04762
2023-01-21T04:05:03.312Z,377.80282
2023-01-21T04:10:05.139Z,393.63504
2023-01-21T04:15:07.123Z,390.37681
2023-01-21T04:20:08.774Z,396.94118
2023-01-21T04:25:10.492Z,390.37681
2023-01-21T04:30:12.024Z,380.87943
2023-01-21T04:35:13.749Z,384
2023-01-21T04:40:15.650Z,393.63504
2023-01-21T04:45:17.474Z,390.37681
2023-01-21T04:50:19.383Z,400.2963
2023-01-21T04:55:20.975Z,403.70149
2023-01-21T05:00:22.573Z,410.66667
2023-01-21T05:05:24.250Z,400.2963
2023-01-21T05:10:26.061Z,396.94118
2023-01-21T05:15:28.172Z,377.80282
2023-01-21T05:20:30.298Z,363.04762
2023-01-21T05:25:32.259Z,354.66667
2023-01-21T05:30:34.312Z,338.87179
2023-01-21T05:35:36.226Z,344
2023-01-21T05:40:38.179Z,357.42282
2023-01-21T05:45:40.337Z,365.91781
2023-01-21T05:50:42.313Z,377.80282
2023-01-21T05:55:44.157Z,368.82759
2023-01-21T06:00:45.937Z,374.76923
2023-01-21T06:05:47.454Z,384
2023-01-21T06:10:48.947Z,390.37681
2023-01-21T06:15:50.616Z,387.16547
2023-01-21T06:20:52.408Z,393.63504
2023-01-21T06:25:54.477Z,393.63504
2023-01-21T06:30:56.556Z,410.66667
2023-01-21T06:35:58.430Z,403.70149
2023-01-21T06:41:00.340Z,407.15789
2023-01-21T06:46:02.422Z,425.25
2023-01-21T06:51:04.349Z,400.2963
2023-01-21T06:56:06.342Z,432.88889
2023-01-21T07:01:08.026Z,470.49573
2023-01-21T07:06:09.467Z,440.77419
2023-01-21T07:11:11.285Z,440.77419
2023-01-21T07:16:12.956Z,421.51938
2023-01-21T07:21:14.577Z,461.64706
2023-01-21T07:26:16.243Z,440.77419
2023-01-21T07:31:17.952Z,498.95495
2023-01-21T07:36:19.819Z,509.13761
2023-01-21T07:41:21.716Z,504
2023-01-21T07:46:23.743Z,514.37037
2023-01-21T07:51:25.302Z,498.95495
2023-01-21T07:56:26.901Z,547.92157
2023-01-21T08:01:28.679Z,519.70093
2023-01-21T08:06:30.669Z,457.33333
2023-01-21T08:11:32.264Z,421.51938
2023-01-21T08:16:34.356Z,390.37681
2023-01-21T08:21:36.133Z,457.33333
2023-01-21T08:26:38.385Z,400.2963
2023-01-21T08:31:39.923Z,479.65217
2023-01-21T08:36:41.800Z,494
2023-01-21T08:41:43.789Z,380.87943
2023-01-21T08:46:45.768Z,457.33333
2023-01-21T08:51:47.676Z,560
2023-01-21T08:56:49.656Z,530.66667
2023-01-21T10:09:06.871Z,704.49383
2023-01-21T10:14:08.515Z,686.16867
2023-01-21T10:19:10.541Z,542.05825
2023-01-21T10:24:12.267Z,754.52632
2023-01-21T10:29:14.344Z,723.74684
2023-01-21T10:34:16.129Z,733.74359
2023-01-21T10:39:17.883Z,695.21951
2023-01-21T10:44:19.668Z,613.56522
2023-01-21T10:49:21.363Z,660.27907
2023-01-21T10:54:23.279Z,530.66667
2023-01-21T10:59:25.079Z,525.13208
2023-01-21T11:04:26.996Z,448.91803
2023-01-21T11:09:28.887Z,457.33333
2023-01-21T11:14:30.777Z,585.66667
2023-01-21T11:19:32.645Z,542.05825
2023-01-21T11:24:34.254Z,530.66667
2023-01-21T11:29:35.892Z,566.22222
2023-01-21T11:34:37.488Z,530.66667
2023-01-21T11:39:39.437Z,606.36559
2023-01-21T11:44:40.939Z,509.13761
2023-01-21T11:49:42.539Z,484.35088
2023-01-21T11:54:44.308Z,530.66667
2023-01-21T11:59:45.847Z,668.70588
2023-01-21T12:09:58.458Z,606.36559
2023-01-21T12:14:59.911Z,723.74684
2023-01-21T12:20:01.868Z,849.88235
2023-01-21T12:25:04.076Z,937.54839
2023-01-21T12:30:05.798Z,891.69231
2023-01-21T12:35:07.511Z,877.33333
2023-01-21T12:40:09.587Z,754.52632
2023-01-21T12:45:11.597Z,628.44444
2023-01-21T12:50:13.532Z,536.30769
2023-01-21T12:55:15.482Z,628.44444
2023-01-21T13:00:17.430Z,572.57143
2023-01-21T13:05:19.467Z,636.13483
2023-01-21T13:10:21.237Z,542.05825
2023-01-21T13:15:22.875Z,628.44444
2023-01-21T13:20:24.242Z,606.36559
2023-01-21T13:25:25.689Z,636.13483
2023-01-21T13:30:26.954Z,714
2023-01-21T13:35:28.440Z,787.83562
2023-01-21T13:40:30.529Z,765.33333
2023-01-21T13:45:32.002Z,811.60563
2023-01-21T13:50:33.732Z,836.75362
2023-01-21T13:55:34.991Z,937.54839
2023-01-21T14:00:36.766Z,906.5
2023-01-21T14:05:38.732Z,877.33333
2023-01-21T14:10:40.557Z,863.40299
2023-01-21T14:15:42.418Z,836.75362
2023-01-21T14:20:44.302Z,863.40299
2023-01-21T14:25:45.943Z,660.27907
2023-01-21T14:30:47.456Z,765.33333
2023-01-21T14:35:48.952Z,776.43243
2023-01-21T14:40:51.385Z,695.21951
2023-01-21T14:45:53.270Z,714
2023-01-21T14:50:54.904Z,811.60563
2023-01-21T14:55:56.683Z,636.13483
2023-01-21T15:00:58.332Z,723.74684
2023-01-21T15:06:00.047Z,686.16867
2023-01-21T15:11:02.118Z,765.33333
2023-01-21T15:16:04.030Z,776.43243
2023-01-21T15:21:05.798Z,799.55556
2023-01-21T15:26:07.769Z,776.43243
2023-01-21T15:31:09.725Z,628.44444
2023-01-21T15:36:11.522Z,652.04598
2023-01-21T15:41:13.881Z,811.60563
2023-01-21T15:46:15.669Z,799.55556
2023-01-21T15:51:19.549Z,744
2023-01-21T15:56:22.148Z,824
2023-01-21T16:01:23.813Z,668.70588
2023-01-21T16:06:25.526Z,811.60563
2023-01-21T16:11:27.585Z,799.55556
2023-01-21T16:16:29.285Z,799.55556
2023-01-21T16:21:31.575Z,787.83562
2023-01-21T16:26:33.349Z,811.60563
2023-01-21T16:31:35.390Z,776.43243
2023-01-21T16:36:37.284Z,668.70588
2023-01-21T16:41:39.419Z,677.33333
2023-01-21T16:46:41.518Z,733.74359
2023-01-21T16:51:43.263Z,652.04598
2023-01-21T16:56:45.113Z,620.92308
2023-01-21T17:01:46.946Z,509.13761
2023-01-21T17:06:48.983Z,530.66667
2023-01-21T17:11:50.955Z,606.36559
2023-01-21T17:16:52.697Z,660.27907
2023-01-21T17:21:54.478Z,448.91803
2023-01-21T17:26:56.415Z,417.84615
2023-01-21T17:31:58.348Z,457.33333
2023-01-21T17:37:00.156Z,475.03448
2023-01-21T17:42:02.285Z,509.13761
2023-01-21T17:47:04.041Z,525.13208
2023-01-21T17:52:05.832Z,444.81301
2023-01-21T17:57:07.793Z,440.77419
2023-01-21T18:02:09.714Z,371.77778
2023-01-21T18:07:11.398Z,338.87179
2023-01-21T18:12:13.365Z,324.24691
2023-01-21T18:17:14.803Z,384
2023-01-21T18:22:16.247Z,374.76923
2023-01-21T18:27:17.787Z,365.91781
2023-01-21T18:32:19.481Z,396.94118
2023-01-21T18:37:21.481Z,421.51938
2023-01-21T18:42:23.141Z,417.84615
2023-01-21T18:47:24.605Z,466.0339
2023-01-21T18:52:26.058Z,498.95495
2023-01-21T18:57:27.496Z,519.70093
2023-01-21T19:02:29.059Z,525.13208
2023-01-21T19:07:30.574Z,530.66667
2023-01-21T19:12:32.403Z,542.05825
2023-01-21T19:17:34.028Z,525.13208
2023-01-21T19:22:35.675Z,484.35088
2023-01-21T19:27:37.371Z,461.64706
2023-01-21T19:32:38.924Z,440.77419
2023-01-21T19:37:40.532Z,461.64706
2023-01-21T19:42:42.496Z,461.64706
2023-01-21T19:47:43.941Z,448.91803
2023-01-21T19:52:45.396Z,489.13274
2023-01-21T19:57:46.930Z,509.13761
2023-01-21T20:02:48.423Z,553.90099
2023-01-21T20:07:50.037Z,547.92157
2023-01-21T20:12:52.207Z,668.70588
2023-01-21T20:17:53.955Z,620.92308
2023-01-21T20:22:55.878Z,636.13483
2023-01-21T20:27:57.908Z,660.27907
2023-01-21T20:32:59.739Z,636.13483
2023-01-21T20:38:01.229Z,636.13483
2023-01-21T20:43:03.242Z,636.13483
2023-01-21T20:48:10.044Z,606.36559
2023-01-21T20:53:11.636Z,613.56522
2023-01-21T20:58:13.390Z,585.66667
2023-01-21T21:03:15.025Z,585.66667
2023-01-21T21:08:16.496Z,599.31915
2023-01-21T21:13:18.197Z,585.66667
2023-01-21T21:18:19.960Z,566.22222
2023-01-21T21:23:21.551Z,566.22222
2023-01-21T21:28:23.131Z,536.30769
2023-01-21T21:33:24.563Z,525.13208
2023-01-21T21:38:26.022Z,494
2023-01-21T21:43:27.707Z,470.49573
2023-01-21T21:48:29.208Z,444.81301
2023-01-21T21:53:30.879Z,425.25
2023-01-21T21:58:32.340Z,414.22901
2023-01-21T22:03:33.811Z,400.2963
2023-01-21T22:08:35.407Z,396.94118
2023-01-21T22:13:37.401Z,403.70149
2023-01-21T22:18:38.857Z,393.63504
2023-01-21T22:23:40.341Z,377.80282
2023-01-21T22:28:41.913Z,365.91781
2023-01-21T22:33:43.722Z,357.42282
2023-01-21T22:38:45.665Z,351.94702
2023-01-21T22:43:47.429Z,357.42282
2023-01-21T22:48:49.027Z,363.04762
2023-01-21T22:53:50.463Z,371.77778
2023-01-21T22:58:52.264Z,374.76923
2023-01-21T23:03:53.737Z,351.94702
2023-01-21T23:08:55.350Z,338.87179
2023-01-21T23:13:57.038Z,338.87179
2023-01-21T23:18:58.547Z,360.21622
2023-01-21T23:24:00.134Z,380.87943
2023-01-21T23:29:01.767Z,393.63504
2023-01-21T23:34:03.466Z,403.70149
2023-01-21T23:39:04.940Z,414.22901
2023-01-21T23:44:06.722Z,421.51938
2023-01-21T23:49:08.248Z,421.51938
2023-01-21T23:54:09.744Z,417.84615
2023-01-21T23:59:11.477Z,414.22901
